sensor_id;sensor_type;location;lat;lon;timestamp;temperature;humidity
5808;DHT22;2930;42.678;23.312;2023-07-31T07:50:27;22.60;81.70
5808;DHT22;2930;42.678;23.312;2023-07-31T07:52:52;22.90;79.40
5808;DHT22;2930;42.678;23.312;2023-07-31T07:55:18;23.10;77.80
5808;DHT22;2930;42.678;23.312;2023-07-31T07:57:44;23.10;77.30
5808;DHT22;2930;42.678;23.312;2023-07-31T08:00:11;23.20;76.60
5808;DHT22;2930;42.678;23.312;2023-07-31T08:02:37;23.40;75.60
5808;DHT22;2930;42.678;23.312;2023-07-31T08:05:03;23.50;76.10
5808;DHT22;2930;42.678;23.312;2023-07-31T08:07:28;23.50;76.40
5808;DHT22;2930;42.678;23.312;2023-07-31T08:09:54;23.50;76.90
5808;DHT22;2930;42.678;23.312;2023-07-31T08:12:20;23.70;76.70
5808;DHT22;2930;42.678;23.312;2023-07-31T08:14:45;23.80;76.10
5808;DHT22;2930;42.678;23.312;2023-07-31T08:17:11;23.90;75.70
5808;DHT22;2930;42.678;23.312;2023-07-31T08:19:37;24.00;74.60
5808;DHT22;2930;42.678;23.312;2023-07-31T08:22:03;24.10;74.50
5808;DHT22;2930;42.678;23.312;2023-07-31T08:24:28;24.20;73.90
5808;DHT22;2930;42.678;23.312;2023-07-31T08:26:54;24.50;73.60
5808;DHT22;2930;42.678;23.312;2023-07-31T08:29:20;24.60;73.30
5808;DHT22;2930;42.678;23.312;2023-07-31T08:31:45;24.50;73.80
5808;DHT22;2930;42.678;23.312;2023-07-31T08:34:11;24.80;73.90
5808;DHT22;2930;42.678;23.312;2023-07-31T08:36:37;24.90;72.30
5808;DHT22;2930;42.678;23.312;2023-07-31T08:39:03;24.90;72.40
5808;DHT22;2930;42.678;23.312;2023-07-31T08:41:29;25.00;72.20
5808;DHT22;2930;42.678;23.312;2023-07-31T08:43:55;25.00;71.50
5808;DHT22;2930;42.678;23.312;2023-07-31T08:46:22;25.00;71.50
5808;DHT22;2930;42.678;23.312;2023-07-31T08:48:48;25.20;71.70
5808;DHT22;2930;42.678;23.312;2023-07-31T08:51:14;25.40;71.40
5808;DHT22;2930;42.678;23.312;2023-07-31T08:53:41;25.50;71.70
5808;DHT22;2930;42.678;23.312;2023-07-31T08:56:06;25.70;70.40
5808;DHT22;2930;42.678;23.312;2023-07-31T08:58:33;25.90;69.70
5808;DHT22;2930;42.678;23.312;2023-07-31T09:01:01;26.00;69.20
5808;DHT22;2930;42.678;23.312;2023-07-31T09:03:29;26.10;69.10
5808;DHT22;2930;42.678;23.312;2023-07-31T09:05:58;26.10;68.90
5808;DHT22;2930;42.678;23.312;2023-07-31T09:08:27;26.10;68.70
5808;DHT22;2930;42.678;23.312;2023-07-31T09:10:59;26.10;69.10
5808;DHT22;2930;42.678;23.312;2023-07-31T09:13:28;26.30;68.50
5808;DHT22;2930;42.678;23.312;2023-07-31T09:15:53;26.40;68.40
5808;DHT22;2930;42.678;23.312;2023-07-31T09:18:19;26.40;67.50
5808;DHT22;2930;42.678;23.312;2023-07-31T09:21:02;26.40;67.20
5808;DHT22;2930;42.678;23.312;2023-07-31T09:23:40;26.70;67.00
5808;DHT22;2930;42.678;23.312;2023-07-31T09:26:06;26.70;67.40
5808;DHT22;2930;42.678;23.312;2023-07-31T09:28:33;26.90;67.10
5808;DHT22;2930;42.678;23.312;2023-07-31T09:30:59;27.10;67.00
5808;DHT22;2930;42.678;23.312;2023-07-31T09:33:24;27.30;67.00
5808;DHT22;2930;42.678;23.312;2023-07-31T09:35:50;27.40;66.50
5808;DHT22;2930;42.678;23.312;2023-07-31T09:38:16;27.70;65.10
5808;DHT22;2930;42.678;23.312;2023-07-31T09:40:47;27.90;65.20
5808;DHT22;2930;42.678;23.312;2023-07-31T09:43:17;27.70;65.10
5808;DHT22;2930;42.678;23.312;2023-07-31T09:45:44;27.70;64.90
5808;DHT22;2930;42.678;23.312;2023-07-31T09:48:19;28.00;65.30
5808;DHT22;2930;42.678;23.312;2023-07-31T09:50:49;28.40;64.40
5808;DHT22;2930;42.678;23.312;2023-07-31T09:53:17;28.60;63.90
5808;DHT22;2930;42.678;23.312;2023-07-31T09:55:43;28.80;63.00
5808;DHT22;2930;42.678;23.312;2023-07-31T09:58:11;29.40;62.60
5808;DHT22;2930;42.678;23.312;2023-07-31T10:00:38;29.70;61.90
5808;DHT22;2930;42.678;23.312;2023-07-31T10:03:10;30.30;60.20
5808;DHT22;2930;42.678;23.312;2023-07-31T10:05:45;30.80;58.80
5808;DHT22;2930;42.678;23.312;2023-07-31T10:08:14;30.70;58.50
5808;DHT22;2930;42.678;23.312;2023-07-31T10:10:45;31.00;58.20
5808;DHT22;2930;42.678;23.312;2023-07-31T10:13:14;31.50;58.00
5808;DHT22;2930;42.678;23.312;2023-07-31T10:15:41;32.20;56.50
5808;DHT22;2930;42.678;23.312;2023-07-31T10:18:08;32.50;56.00
5808;DHT22;2930;42.678;23.312;2023-07-31T10:20:35;32.70;55.50
5808;DHT22;2930;42.678;23.312;2023-07-31T10:23:02;32.70;54.90
5808;DHT22;2930;42.678;23.312;2023-07-31T10:25:29;32.90;54.70
5808;DHT22;2930;42.678;23.312;2023-07-31T10:27:54;33.10;54.70
5808;DHT22;2930;42.678;23.312;2023-07-31T10:30:24;33.70;54.20
5808;DHT22;2930;42.678;23.312;2023-07-31T10:32:51;34.50;53.30
5808;DHT22;2930;42.678;23.312;2023-07-31T10:35:20;35.40;51.30
5808;DHT22;2930;42.678;23.312;2023-07-31T10:37:50;36.30;51.80
5808;DHT22;2930;42.678;23.312;2023-07-31T10:45:38;37.60;47.60
5808;DHT22;2930;42.678;23.312;2023-07-31T10:48:05;37.60;48.20
5808;DHT22;2930;42.678;23.312;2023-07-31T10:50:32;38.00;47.90
5808;DHT22;2930;42.678;23.312;2023-07-31T10:52:58;37.70;49.70
5808;DHT22;2930;42.678;23.312;2023-07-31T10:55:36;37.30;49.00
5808;DHT22;2930;42.678;23.312;2023-07-31T10:58:12;36.90;48.40
5808;DHT22;2930;42.678;23.312;2023-07-31T11:00:43;36.90;47.90
5808;DHT22;2930;42.678;23.312;2023-07-31T11:03:10;36.50;48.20
5808;DHT22;2930;42.678;23.312;2023-07-31T11:05:52;36.80;48.30
5808;DHT22;2930;42.678;23.312;2023-07-31T11:08:28;37.20;47.40
5808;DHT22;2930;42.678;23.312;2023-07-31T11:13:51;37.50;47.40
5808;DHT22;2930;42.678;23.312;2023-07-31T11:16:21;37.40;46.10
5808;DHT22;2930;42.678;23.312;2023-07-31T11:18:48;37.70;46.60
5808;DHT22;2930;42.678;23.312;2023-07-31T11:21:15;37.80;46.10
5808;DHT22;2930;42.678;23.312;2023-07-31T11:23:41;37.80;47.20
5808;DHT22;2930;42.678;23.312;2023-07-31T11:26:07;38.20;47.10
5808;DHT22;2930;42.678;23.312;2023-07-31T11:28:34;38.60;45.30
5808;DHT22;2930;42.678;23.312;2023-07-31T11:31:00;39.10;44.70
5808;DHT22;2930;42.678;23.312;2023-07-31T11:33:26;39.40;44.00
5808;DHT22;2930;42.678;23.312;2023-07-31T11:35:52;38.80;46.40
5808;DHT22;2930;42.678;23.312;2023-07-31T11:38:29;39.00;45.20
5808;DHT22;2930;42.678;23.312;2023-07-31T11:41:03;39.00;45.80
5808;DHT22;2930;42.678;23.312;2023-07-31T11:43:30;38.70;45.10
5808;DHT22;2930;42.678;23.312;2023-07-31T11:45:59;36.30;47.70
5808;DHT22;2930;42.678;23.312;2023-07-31T11:48:28;34.50;50.20
5808;DHT22;2930;42.678;23.312;2023-07-31T11:50:57;33.90;50.70
5808;DHT22;2930;42.678;23.312;2023-07-31T11:56:09;35.50;48.70
5808;DHT22;2930;42.678;23.312;2023-07-31T11:58:37;36.30;49.90
5808;DHT22;2930;42.678;23.312;2023-07-31T12:01:04;37.30;47.10
5808;DHT22;2930;42.678;23.312;2023-07-31T12:03:31;38.20;46.50
5808;DHT22;2930;42.678;23.312;2023-07-31T12:05:58;39.20;46.30
5808;DHT22;2930;42.678;23.312;2023-07-31T12:08:25;40.10;45.20
5808;DHT22;2930;42.678;23.312;2023-07-31T12:10:51;40.50;45.80
5808;DHT22;2930;42.678;23.312;2023-07-31T12:13:25;40.90;43.30
5808;DHT22;2930;42.678;23.312;2023-07-31T12:15:55;40.30;44.10
5808;DHT22;2930;42.678;23.312;2023-07-31T12:18:23;39.90;44.40
5808;DHT22;2930;42.678;23.312;2023-07-31T12:21:00;39.10;45.00
5808;DHT22;2930;42.678;23.312;2023-07-31T12:23:28;39.60;45.50
5808;DHT22;2930;42.678;23.312;2023-07-31T12:31:10;37.80;46.20
5808;DHT22;2930;42.678;23.312;2023-07-31T12:33:38;36.90;46.70
5808;DHT22;2930;42.678;23.312;2023-07-31T12:36:16;36.50;47.50
5808;DHT22;2930;42.678;23.312;2023-07-31T12:38:43;36.20;47.20
5808;DHT22;2930;42.678;23.312;2023-07-31T12:41:09;36.20;47.80
5808;DHT22;2930;42.678;23.312;2023-07-31T12:43:36;36.40;48.00
5808;DHT22;2930;42.678;23.312;2023-07-31T12:46:02;36.50;48.20
5808;DHT22;2930;42.678;23.312;2023-07-31T12:48:28;35.60;47.60
5808;DHT22;2930;42.678;23.312;2023-07-31T12:50:53;34.80;48.90
5808;DHT22;2930;42.678;23.312;2023-07-31T12:53:19;34.10;49.90
5808;DHT22;2930;42.678;23.312;2023-07-31T12:55:45;32.90;51.60
5808;DHT22;2930;42.678;23.312;2023-07-31T12:58:10;32.40;52.50
5808;DHT22;2930;42.678;23.312;2023-07-31T13:00:36;32.00;53.00
5808;DHT22;2930;42.678;23.312;2023-07-31T13:03:02;31.90;54.20
5808;DHT22;2930;42.678;23.312;2023-07-31T13:06:02;33.10;52.00
5808;DHT22;2930;42.678;23.312;2023-07-31T13:08:28;34.00;50.80
5808;DHT22;2930;42.678;23.312;2023-07-31T13:10:54;34.00;51.80
5808;DHT22;2930;42.678;23.312;2023-07-31T13:13:19;33.50;51.80
5808;DHT22;2930;42.678;23.312;2023-07-31T13:16:01;33.20;52.20
5808;DHT22;2930;42.678;23.312;2023-07-31T13:18:27;32.40;52.50
5808;DHT22;2930;42.678;23.312;2023-07-31T13:20:52;32.20;53.40
5808;DHT22;2930;42.678;23.312;2023-07-31T13:23:18;32.00;53.70
5808;DHT22;2930;42.678;23.312;2023-07-31T13:25:44;31.80;53.70
5808;DHT22;2930;42.678;23.312;2023-07-31T13:28:09;30.70;54.40
5808;DHT22;2930;42.678;23.312;2023-07-31T13:30:35;30.60;55.40
5808;DHT22;2930;42.678;23.312;2023-07-31T13:33:01;31.30;54.70
5808;DHT22;2930;42.678;23.312;2023-07-31T13:35:26;31.70;53.10
5808;DHT22;2930;42.678;23.312;2023-07-31T13:37:52;32.30;53.00
5808;DHT22;2930;42.678;23.312;2023-07-31T13:40:18;33.10;51.20
5808;DHT22;2930;42.678;23.312;2023-07-31T13:42:43;33.60;50.50
5808;DHT22;2930;42.678;23.312;2023-07-31T13:45:09;33.80;50.20
5808;DHT22;2930;42.678;23.312;2023-07-31T13:47:35;33.70;50.30
5808;DHT22;2930;42.678;23.312;2023-07-31T13:50:02;33.40;50.60
5808;DHT22;2930;42.678;23.312;2023-07-31T13:52:28;33.60;50.50
5808;DHT22;2930;42.678;23.312;2023-07-31T13:54:53;34.20;50.40
5808;DHT22;2930;42.678;23.312;2023-07-31T13:57:19;34.80;49.80
5808;DHT22;2930;42.678;23.312;2023-07-31T13:59:45;35.40;49.20
5808;DHT22;2930;42.678;23.312;2023-07-31T14:02:10;35.90;48.30
5808;DHT22;2930;42.678;23.312;2023-07-31T14:04:36;36.10;48.10
5808;DHT22;2930;42.678;23.312;2023-07-31T14:07:02;36.00;47.90
5808;DHT22;2930;42.678;23.312;2023-07-31T14:09:28;35.10;48.10
5808;DHT22;2930;42.678;23.312;2023-07-31T14:11:54;34.70;49.10
5808;DHT22;2930;42.678;23.312;2023-07-31T14:14:19;34.70;49.50
5808;DHT22;2930;42.678;23.312;2023-07-31T14:16:45;34.50;50.00
5808;DHT22;2930;42.678;23.312;2023-07-31T14:19:11;34.50;49.40
5808;DHT22;2930;42.678;23.312;2023-07-31T14:21:36;34.50;49.70
5808;DHT22;2930;42.678;23.312;2023-07-31T14:24:02;34.20;50.50
5808;DHT22;2930;42.678;23.312;2023-07-31T14:26:28;33.80;51.30
5808;DHT22;2930;42.678;23.312;2023-07-31T14:28:53;33.70;51.60
5808;DHT22;2930;42.678;23.312;2023-07-31T14:31:19;34.00;51.50
5808;DHT22;2930;42.678;23.312;2023-07-31T14:33:45;34.00;50.60
5808;DHT22;2930;42.678;23.312;2023-07-31T14:36:11;33.90;51.10
5808;DHT22;2930;42.678;23.312;2023-07-31T14:38:36;34.30;51.10
5808;DHT22;2930;42.678;23.312;2023-07-31T14:41:02;34.90;50.40
5808;DHT22;2930;42.678;23.312;2023-07-31T14:43:28;35.30;50.10
5808;DHT22;2930;42.678;23.312;2023-07-31T14:45:53;35.50;50.10
5808;DHT22;2930;42.678;23.312;2023-07-31T14:48:21;35.70;50.30
5808;DHT22;2930;42.678;23.312;2023-07-31T14:50:47;35.60;49.70
5808;DHT22;2930;42.678;23.312;2023-07-31T14:53:12;35.90;50.00
5808;DHT22;2930;42.678;23.312;2023-07-31T14:55:38;36.30;49.60
5808;DHT22;2930;42.678;23.312;2023-07-31T14:58:04;36.70;49.40
5808;DHT22;2930;42.678;23.312;2023-07-31T15:00:29;37.30;49.00
5808;DHT22;2930;42.678;23.312;2023-07-31T15:02:55;37.80;47.80
5808;DHT22;2930;42.678;23.312;2023-07-31T15:05:21;37.80;47.40
5808;DHT22;2930;42.678;23.312;2023-07-31T15:07:47;37.40;48.20
5808;DHT22;2930;42.678;23.312;2023-07-31T15:10:12;36.40;48.90
5808;DHT22;2930;42.678;23.312;2023-07-31T15:12:40;35.20;50.40
5808;DHT22;2930;42.678;23.312;2023-07-31T15:15:06;34.80;51.40
5808;DHT22;2930;42.678;23.312;2023-07-31T15:17:32;34.40;51.80
5808;DHT22;2930;42.678;23.312;2023-07-31T15:19:57;34.20;52.40
5808;DHT22;2930;42.678;23.312;2023-07-31T15:22:23;34.30;52.40
5808;DHT22;2930;42.678;23.312;2023-07-31T15:24:50;34.00;52.90
5808;DHT22;2930;42.678;23.312;2023-07-31T15:27:15;33.80;53.10
5808;DHT22;2930;42.678;23.312;2023-07-31T15:29:44;33.70;53.30
5808;DHT22;2930;42.678;23.312;2023-07-31T15:32:09;33.80;53.70
5808;DHT22;2930;42.678;23.312;2023-07-31T15:34:35;33.20;53.60
5808;DHT22;2930;42.678;23.312;2023-07-31T15:37:01;32.60;54.70
5808;DHT22;2930;42.678;23.312;2023-07-31T15:39:26;31.80;55.90
5808;DHT22;2930;42.678;23.312;2023-07-31T15:41:52;31.30;56.60
5808;DHT22;2930;42.678;23.312;2023-07-31T15:44:18;30.60;57.80
5808;DHT22;2930;42.678;23.312;2023-07-31T15:46:43;29.80;59.20
5808;DHT22;2930;42.678;23.312;2023-07-31T15:49:10;29.20;60.20
5808;DHT22;2930;42.678;23.312;2023-07-31T15:54:03;28.60;61.30
5808;DHT22;2930;42.678;23.312;2023-07-31T15:56:29;28.10;62.10
5808;DHT22;2930;42.678;23.312;2023-07-31T15:58:55;27.80;62.80
5808;DHT22;2930;42.678;23.312;2023-07-31T16:01:45;27.60;63.50
5808;DHT22;2930;42.678;23.312;2023-07-31T16:04:11;27.40;63.80
5808;DHT22;2930;42.678;23.312;2023-07-31T16:06:37;27.40;63.80
5808;DHT22;2930;42.678;23.312;2023-07-31T16:09:02;27.30;64.20
5808;DHT22;2930;42.678;23.312;2023-07-31T16:11:28;27.10;64.40
5808;DHT22;2930;42.678;23.312;2023-07-31T16:13:54;27.00;64.20
5808;DHT22;2930;42.678;23.312;2023-07-31T16:16:19;27.10;63.70
5808;DHT22;2930;42.678;23.312;2023-07-31T16:18:46;27.30;63.10
5808;DHT22;2930;42.678;23.312;2023-07-31T16:21:12;27.80;62.30
5808;DHT22;2930;42.678;23.312;2023-07-31T16:23:37;28.30;61.40
5808;DHT22;2930;42.678;23.312;2023-07-31T16:26:03;28.40;60.40
5808;DHT22;2930;42.678;23.312;2023-07-31T16:28:29;28.30;60.30
5808;DHT22;2930;42.678;23.312;2023-07-31T16:30:55;28.30;60.70
5808;DHT22;2930;42.678;23.312;2023-07-31T16:33:21;28.10;61.10
5808;DHT22;2930;42.678;23.312;2023-07-31T16:35:47;27.70;62.30
5808;DHT22;2930;42.678;23.312;2023-07-31T16:38:12;27.50;62.30
5808;DHT22;2930;42.678;23.312;2023-07-31T16:40:38;27.30;62.80
5808;DHT22;2930;42.678;23.312;2023-07-31T16:43:04;27.10;63.40
5808;DHT22;2930;42.678;23.312;2023-07-31T16:45:29;26.90;63.60
5808;DHT22;2930;42.678;23.312;2023-07-31T16:47:55;26.80;63.20
5808;DHT22;2930;42.678;23.312;2023-07-31T16:50:21;26.60;63.70
5808;DHT22;2930;42.678;23.312;2023-07-31T16:52:46;26.60;63.50
5808;DHT22;2930;42.678;23.312;2023-07-31T16:55:12;26.50;62.70
5808;DHT22;2930;42.678;23.312;2023-07-31T16:57:38;26.60;62.00
5808;DHT22;2930;42.678;23.312;2023-07-31T17:00:04;26.70;61.80
5808;DHT22;2930;42.678;23.312;2023-07-31T17:02:30;26.80;61.70
5808;DHT22;2930;42.678;23.312;2023-07-31T17:04:55;26.90;61.60
5808;DHT22;2930;42.678;23.312;2023-07-31T17:07:21;26.90;61.60
5808;DHT22;2930;42.678;23.312;2023-07-31T17:11:08;26.90;61.70
5808;DHT22;2930;42.678;23.312;2023-07-31T17:13:34;26.90;61.90
5808;DHT22;2930;42.678;23.312;2023-07-31T17:15:59;26.80;62.00
5808;DHT22;2930;42.678;23.312;2023-07-31T17:18:25;26.80;62.20
5808;DHT22;2930;42.678;23.312;2023-07-31T17:20:51;26.80;62.40
5808;DHT22;2930;42.678;23.312;2023-07-31T17:23:16;26.80;62.60
5808;DHT22;2930;42.678;23.312;2023-07-31T17:25:42;26.80;62.40
5808;DHT22;2930;42.678;23.312;2023-07-31T17:28:08;26.60;63.10
5808;DHT22;2930;42.678;23.312;2023-07-31T17:30:33;26.50;63.00
5808;DHT22;2930;42.678;23.312;2023-07-31T17:32:59;26.40;63.40
5808;DHT22;2930;42.678;23.312;2023-07-31T17:35:25;26.40;63.10
5808;DHT22;2930;42.678;23.312;2023-07-31T17:37:50;26.40;63.80
5808;DHT22;2930;42.678;23.312;2023-07-31T17:40:16;26.30;63.90
5808;DHT22;2930;42.678;23.312;2023-07-31T17:42:42;26.30;64.10
5808;DHT22;2930;42.678;23.312;2023-07-31T17:45:07;26.30;63.60
5808;DHT22;2930;42.678;23.312;2023-07-31T17:47:33;26.30;63.70
5808;DHT22;2930;42.678;23.312;2023-07-31T17:49:59;26.30;63.70
5808;DHT22;2930;42.678;23.312;2023-07-31T17:52:24;26.20;64.00
5808;DHT22;2930;42.678;23.312;2023-07-31T17:54:50;26.20;64.40
5808;DHT22;2930;42.678;23.312;2023-07-31T17:57:20;26.20;64.00
5808;DHT22;2930;42.678;23.312;2023-07-31T17:59:45;26.20;64.00
5808;DHT22;2930;42.678;23.312;2023-07-31T18:02:12;26.10;64.80
5808;DHT22;2930;42.678;23.312;2023-07-31T18:06:47;25.80;65.40
5808;DHT22;2930;42.678;23.312;2023-07-31T18:09:12;25.80;65.00
5808;DHT22;2930;42.678;23.312;2023-07-31T18:11:38;25.60;65.20
5808;DHT22;2930;42.678;23.312;2023-07-31T18:14:04;25.40;66.00
5808;DHT22;2930;42.678;23.312;2023-07-31T18:16:29;25.40;65.50
5808;DHT22;2930;42.678;23.312;2023-07-31T18:18:55;25.40;65.50
5808;DHT22;2930;42.678;23.312;2023-07-31T18:21:21;25.40;65.90
5808;DHT22;2930;42.678;23.312;2023-07-31T18:23:46;25.30;66.50
5808;DHT22;2930;42.678;23.312;2023-07-31T18:26:12;25.10;67.40
5808;DHT22;2930;42.678;23.312;2023-07-31T18:28:38;25.00;67.70
5808;DHT22;2930;42.678;23.312;2023-07-31T18:31:04;24.80;67.90
5808;DHT22;2930;42.678;23.312;2023-07-31T18:33:31;24.70;67.90
5808;DHT22;2930;42.678;23.312;2023-07-31T18:35:56;24.60;68.40
5808;DHT22;2930;42.678;23.312;2023-07-31T18:38:22;24.50;68.80
5808;DHT22;2930;42.678;23.312;2023-07-31T18:40:48;24.50;68.70
5808;DHT22;2930;42.678;23.312;2023-07-31T18:43:13;24.50;68.20
5808;DHT22;2930;42.678;23.312;2023-07-31T18:45:39;24.40;68.50
5808;DHT22;2930;42.678;23.312;2023-07-31T18:48:05;24.30;69.40
5808;DHT22;2930;42.678;23.312;2023-07-31T18:50:31;24.30;69.20
5808;DHT22;2930;42.678;23.312;2023-07-31T18:52:56;24.20;69.30
5808;DHT22;2930;42.678;23.312;2023-07-31T18:55:22;24.00;70.10
5808;DHT22;2930;42.678;23.312;2023-07-31T18:57:50;24.00;69.90
5808;DHT22;2930;42.678;23.312;2023-07-31T19:00:16;24.00;70.10
5808;DHT22;2930;42.678;23.312;2023-07-31T19:02:41;24.00;69.10
5808;DHT22;2930;42.678;23.312;2023-07-31T19:05:07;23.90;69.90
5808;DHT22;2930;42.678;23.312;2023-07-31T19:07:33;23.80;70.50
5808;DHT22;2930;42.678;23.312;2023-07-31T19:09:59;23.80;70.50
5808;DHT22;2930;42.678;23.312;2023-07-31T19:14:51;23.70;70.40
5808;DHT22;2930;42.678;23.312;2023-07-31T19:17:17;23.60;70.90
5808;DHT22;2930;42.678;23.312;2023-07-31T19:19:42;23.50;71.50
5808;DHT22;2930;42.678;23.312;2023-07-31T19:22:08;23.40;71.60
5808;DHT22;2930;42.678;23.312;2023-07-31T19:24:35;23.40;71.60
5808;DHT22;2930;42.678;23.312;2023-07-31T19:27:00;23.40;71.90
5808;DHT22;2930;42.678;23.312;2023-07-31T19:29:27;23.20;72.00
5808;DHT22;2930;42.678;23.312;2023-07-31T19:31:53;23.20;72.00
5808;DHT22;2930;42.678;23.312;2023-07-31T19:34:19;23.30;72.10
5808;DHT22;2930;42.678;23.312;2023-07-31T19:36:44;23.30;72.30
5808;DHT22;2930;42.678;23.312;2023-07-31T19:39:13;23.20;72.60
5808;DHT22;2930;42.678;23.312;2023-07-31T19:41:39;23.20;72.80
5808;DHT22;2930;42.678;23.312;2023-07-31T19:44:07;23.20;72.10
5808;DHT22;2930;42.678;23.312;2023-07-31T19:46:33;23.10;72.40
5808;DHT22;2930;42.678;23.312;2023-07-31T19:49:00;23.10;72.90
5808;DHT22;2930;42.678;23.312;2023-07-31T19:51:26;22.90;73.50
5808;DHT22;2930;42.678;23.312;2023-07-31T19:53:52;23.00;73.30
5808;DHT22;2930;42.678;23.312;2023-07-31T19:56:17;22.90;73.40
5808;DHT22;2930;42.678;23.312;2023-07-31T19:58:43;22.90;73.80
5808;DHT22;2930;42.678;23.312;2023-07-31T20:01:09;22.80;74.10
5808;DHT22;2930;42.678;23.312;2023-07-31T20:03:35;22.80;74.20
5808;DHT22;2930;42.678;23.312;2023-07-31T20:06:01;22.70;74.30
5808;DHT22;2930;42.678;23.312;2023-07-31T20:08:27;22.70;74.30
5808;DHT22;2930;42.678;23.312;2023-07-31T20:10:53;22.70;75.10
5808;DHT22;2930;42.678;23.312;2023-07-31T20:13:19;22.60;75.30
5808;DHT22;2930;42.678;23.312;2023-07-31T20:15:45;22.60;75.70
5808;DHT22;2930;42.678;23.312;2023-07-31T20:18:11;22.50;75.60
5808;DHT22;2930;42.678;23.312;2023-07-31T20:20:36;22.60;75.00
5808;DHT22;2930;42.678;23.312;2023-07-31T20:23:02;22.60;75.20
5808;DHT22;2930;42.678;23.312;2023-07-31T20:25:27;22.50;75.40
5808;DHT22;2930;42.678;23.312;2023-07-31T20:27:53;22.50;75.90
5808;DHT22;2930;42.678;23.312;2023-07-31T20:30:19;22.50;75.40
5808;DHT22;2930;42.678;23.312;2023-07-31T20:32:44;22.60;74.50
5808;DHT22;2930;42.678;23.312;2023-07-31T20:35:10;22.60;75.80
5808;DHT22;2930;42.678;23.312;2023-07-31T20:37:36;22.50;75.70
5808;DHT22;2930;42.678;23.312;2023-07-31T20:40:06;22.40;76.20
5808;DHT22;2930;42.678;23.312;2023-07-31T20:42:32;22.30;76.70
5808;DHT22;2930;42.678;23.312;2023-07-31T20:44:57;22.30;76.00
5808;DHT22;2930;42.678;23.312;2023-07-31T20:47:42;22.40;76.20
5808;DHT22;2930;42.678;23.312;2023-07-31T20:50:10;22.30;76.80
5808;DHT22;2930;42.678;23.312;2023-07-31T20:52:35;22.30;76.50
5808;DHT22;2930;42.678;23.312;2023-07-31T20:55:01;22.30;77.10
5808;DHT22;2930;42.678;23.312;2023-07-31T20:57:27;22.20;77.40
5808;DHT22;2930;42.678;23.312;2023-07-31T20:59:53;22.20;77.40
5808;DHT22;2930;42.678;23.312;2023-07-31T21:02:19;22.20;77.90
5808;DHT22;2930;42.678;23.312;2023-07-31T21:04:44;22.10;77.80
5808;DHT22;2930;42.678;23.312;2023-07-31T21:07:10;22.10;77.70
5808;DHT22;2930;42.678;23.312;2023-07-31T21:09:40;22.10;78.40
5808;DHT22;2930;42.678;23.312;2023-07-31T21:12:09;22.10;77.40
5808;DHT22;2930;42.678;23.312;2023-07-31T21:14:35;22.00;78.70
5808;DHT22;2930;42.678;23.312;2023-07-31T21:17:01;21.90;78.90
5808;DHT22;2930;42.678;23.312;2023-07-31T21:19:27;22.00;79.00
5808;DHT22;2930;42.678;23.312;2023-07-31T21:21:53;21.90;79.00
5808;DHT22;2930;42.678;23.312;2023-07-31T21:24:18;21.90;78.50
5808;DHT22;2930;42.678;23.312;2023-07-31T21:26:44;21.90;79.30
5808;DHT22;2930;42.678;23.312;2023-07-31T21:29:10;21.80;79.80
5808;DHT22;2930;42.678;23.312;2023-07-31T21:31:36;21.80;80.00
5808;DHT22;2930;42.678;23.312;2023-07-31T21:34:02;21.80;80.00
5808;DHT22;2930;42.678;23.312;2023-07-31T21:36:28;21.80;79.70
5808;DHT22;2930;42.678;23.312;2023-07-31T21:38:53;21.80;80.00
5808;DHT22;2930;42.678;23.312;2023-07-31T21:41:19;21.80;79.90
5808;DHT22;2930;42.678;23.312;2023-07-31T21:43:45;21.90;79.20
5808;DHT22;2930;42.678;23.312;2023-07-31T21:46:10;21.90;79.70
5808;DHT22;2930;42.678;23.312;2023-07-31T21:48:36;21.90;79.30
5808;DHT22;2930;42.678;23.312;2023-07-31T21:51:25;21.80;79.90
5808;DHT22;2930;42.678;23.312;2023-07-31T21:53:50;21.70;80.30
5808;DHT22;2930;42.678;23.312;2023-07-31T21:56:17;21.80;79.60
5808;DHT22;2930;42.678;23.312;2023-07-31T21:58:43;21.70;80.30
5808;DHT22;2930;42.678;23.312;2023-07-31T22:01:09;21.70;79.80
5808;DHT22;2930;42.678;23.312;2023-07-31T22:03:34;21.70;79.60
5808;DHT22;2930;42.678;23.312;2023-07-31T22:06:02;21.60;80.40
5808;DHT22;2930;42.678;23.312;2023-07-31T22:08:28;21.60;80.10
5808;DHT22;2930;42.678;23.312;2023-07-31T22:10:54;21.60;80.30
5808;DHT22;2930;42.678;23.312;2023-07-31T22:13:19;21.50;80.90
5808;DHT22;2930;42.678;23.312;2023-07-31T22:15:45;21.50;80.50
5808;DHT22;2930;42.678;23.312;2023-07-31T22:18:13;21.50;80.90
5808;DHT22;2930;42.678;23.312;2023-07-31T22:20:39;21.50;80.90
5808;DHT22;2930;42.678;23.312;2023-07-31T22:23:05;21.60;79.90
5808;DHT22;2930;42.678;23.312;2023-07-31T22:25:31;21.60;80.70
5808;DHT22;2930;42.678;23.312;2023-07-31T22:27:56;21.60;80.80
5808;DHT22;2930;42.678;23.312;2023-07-31T22:30:22;21.50;81.00
5808;DHT22;2930;42.678;23.312;2023-07-31T22:32:48;21.50;80.80
5808;DHT22;2930;42.678;23.312;2023-07-31T22:35:14;21.50;80.80
5808;DHT22;2930;42.678;23.312;2023-07-31T22:37:40;21.40;80.60
5808;DHT22;2930;42.678;23.312;2023-07-31T22:40:06;21.40;80.30
5808;DHT22;2930;42.678;23.312;2023-07-31T22:42:32;21.40;80.90
5808;DHT22;2930;42.678;23.312;2023-07-31T22:44:58;21.40;81.10
5808;DHT22;2930;42.678;23.312;2023-07-31T22:47:24;21.40;81.30
5808;DHT22;2930;42.678;23.312;2023-07-31T22:49:50;21.40;80.60
5808;DHT22;2930;42.678;23.312;2023-07-31T22:52:15;21.30;80.40
5808;DHT22;2930;42.678;23.312;2023-07-31T22:54:41;21.30;80.60
5808;DHT22;2930;42.678;23.312;2023-07-31T22:57:07;21.30;81.10
5808;DHT22;2930;42.678;23.312;2023-07-31T22:59:33;21.30;80.50
5808;DHT22;2930;42.678;23.312;2023-07-31T23:01:59;21.30;81.10
5808;DHT22;2930;42.678;23.312;2023-07-31T23:04:24;21.30;81.20
5808;DHT22;2930;42.678;23.312;2023-07-31T23:06:50;21.30;80.20
5808;DHT22;2930;42.678;23.312;2023-07-31T23:09:17;21.30;81.20
5808;DHT22;2930;42.678;23.312;2023-07-31T23:11:43;21.10;81.50
5808;DHT22;2930;42.678;23.312;2023-07-31T23:14:08;21.10;81.70
5808;DHT22;2930;42.678;23.312;2023-07-31T23:16:34;21.00;81.70
5808;DHT22;2930;42.678;23.312;2023-07-31T23:19:00;21.00;81.70
5808;DHT22;2930;42.678;23.312;2023-07-31T23:21:26;20.90;81.90
5808;DHT22;2930;42.678;23.312;2023-07-31T23:23:53;20.90;81.90
5808;DHT22;2930;42.678;23.312;2023-07-31T23:26:19;20.90;81.90
5808;DHT22;2930;42.678;23.312;2023-07-31T23:28:45;20.90;81.30
5808;DHT22;2930;42.678;23.312;2023-07-31T23:31:10;20.90;81.40
5808;DHT22;2930;42.678;23.312;2023-07-31T23:33:36;20.80;81.90
5808;DHT22;2930;42.678;23.312;2023-07-31T23:36:12;20.70;82.30
5808;DHT22;2930;42.678;23.312;2023-07-31T23:38:38;20.70;81.70
5808;DHT22;2930;42.678;23.312;2023-07-31T23:41:04;20.80;81.20
5808;DHT22;2930;42.678;23.312;2023-07-31T23:43:30;20.80;81.40
5808;DHT22;2930;42.678;23.312;2023-07-31T23:45:56;20.70;82.00
5808;DHT22;2930;42.678;23.312;2023-07-31T23:48:21;20.70;81.90
5808;DHT22;2930;42.678;23.312;2023-07-31T23:50:47;20.70;81.60
5808;DHT22;2930;42.678;23.312;2023-07-31T23:53:13;20.60;81.80
5808;DHT22;2930;42.678;23.312;2023-07-31T23:55:39;20.60;82.20